Time;durP1;ratioP1;P1;durP2;ratioP2;P2;SDS_P1;SDS_P2;PMS_P1;PMS_P2;Temp;Humidity;BMP_temperature;BMP_pressure;BME280_temperature;BME280_humidity;BME280_pressure;Samples;Min_cycle;Max_cycle;Signal;HPM_P1;HPM_P2
2021/10/15 00:01:08;;;;;;;3.88;2.30;;;9.70;82.20;;;;;;5037163;28;20045;-79
2021/10/15 00:03:34;;;;;;;4.25;2.25;;;9.80;82.20;;;;;;5055503;28;20024;-79
2021/10/15 00:06:00;;;;;;;3.42;2.22;;;9.80;81.90;;;;;;5037440;28;20032;-79
2021/10/15 00:08:25;;;;;;;2.38;2.05;;;9.80;82.50;;;;;;5055336;28;20021;-79
2021/10/15 00:10:51;;;;;;;3.92;2.50;;;9.80;82.70;;;;;;5055338;28;20029;-78
2021/10/15 00:13:17;;;;;;;5.93;2.35;;;9.80;82.50;;;;;;5055371;28;20074;-78
2021/10/15 00:15:43;;;;;;;3.50;2.08;;;9.80;81.90;;;;;;5055275;28;20037;-78
2021/10/15 00:18:09;;;;;;;5.25;2.42;;;9.90;82.20;;;;;;5037257;28;20029;-79
2021/10/15 00:20:34;;;;;;;2.15;1.95;;;9.90;82.20;;;;;;5054921;28;20068;-79
2021/10/15 00:23:00;;;;;;;3.03;2.38;;;9.90;82.40;;;;;;5055051;28;20024;-79
2021/10/15 00:25:26;;;;;;;1.95;1.83;;;9.90;82.60;;;;;;5054915;28;20103;-80
2021/10/15 00:27:51;;;;;;;4.85;2.67;;;9.90;82.90;;;;;;5054990;28;20112;-79
2021/10/15 00:30:17;;;;;;;4.07;2.30;;;9.90;82.80;;;;;;5054927;28;20079;-79
2021/10/15 00:32:43;;;;;;;2.45;2.17;;;9.90;81.80;;;;;;5055144;28;20021;-79
2021/10/15 00:35:08;;;;;;;5.90;2.67;;;9.90;82.20;;;;;;5054981;28;20036;-79
2021/10/15 00:37:34;;;;;;;4.07;2.30;;;9.90;82.20;;;;;;5054938;28;20047;-79
2021/10/15 00:40:01;;;;;;;7.45;2.40;;;10.00;82.20;;;;;;5054530;28;20044;-79
2021/10/15 00:42:27;;;;;;;2.63;2.05;;;10.00;82.10;;;;;;5054744;28;20021;-79
2021/10/15 00:44:53;;;;;;;2.70;2.30;;;10.00;84.30;;;;;;5054633;28;20086;-79
2021/10/15 00:47:18;;;;;;;4.03;2.42;;;10.00;83.10;;;;;;5054563;28;20103;-79
2021/10/15 00:49:44;;;;;;;5.75;2.17;;;9.90;82.80;;;;;;5036773;28;20419;-79
2021/10/15 00:52:10;;;;;;;3.65;2.70;;;9.90;83.90;;;;;;5054577;28;20032;-79
2021/10/15 00:54:37;;;;;;;2.20;1.92;;;9.80;84.20;;;;;;5054388;28;20482;-79
2021/10/15 00:57:03;;;;;;;3.40;2.20;;;9.80;84.10;;;;;;5036615;28;20031;-79
2021/10/15 00:59:29;;;;;;;3.00;2.42;;;9.80;84.60;;;;;;5036150;28;20045;-79
2021/10/15 01:01:54;;;;;;;4.55;2.47;;;9.70;85.40;;;;;;5036459;28;20028;-79
2021/10/15 01:04:20;;;;;;;3.60;2.50;;;9.70;85.10;;;;;;5054159;28;20377;-79
2021/10/15 01:06:46;;;;;;;4.32;2.45;;;9.70;84.00;;;;;;5054199;28;20123;-79
2021/10/15 01:09:12;;;;;;;3.83;2.30;;;9.80;84.80;;;;;;5053413;28;20021;-79
2021/10/15 01:11:39;;;;;;;6.00;2.60;;;9.80;84.40;;;;;;5054208;28;20017;-79
2021/10/15 01:14:07;;;;;;;3.35;2.38;;;9.90;84.00;;;;;;5054091;28;20024;-78
2021/10/15 01:16:33;;;;;;;4.45;2.60;;;9.90;84.30;;;;;;5054125;28;20082;-79
2021/10/15 01:19:02;;;;;;;4.55;2.47;;;9.80;84.40;;;;;;5054276;28;20025;-80
2021/10/15 01:21:29;;;;;;;5.97;2.38;;;9.70;85.30;;;;;;5053926;28;20033;-79
2021/10/15 01:23:55;;;;;;;6.00;2.53;;;9.70;84.80;;;;;;5054088;28;20025;-78
2021/10/15 01:26:22;;;;;;;2.65;1.95;;;9.60;85.30;;;;;;5036224;28;20471;-79
2021/10/15 01:28:51;;;;;;;3.58;2.40;;;9.60;86.60;;;;;;5036035;28;20017;-79
2021/10/15 01:31:17;;;;;;;4.10;2.38;;;9.50;85.50;;;;;;5053660;28;20098;-80
2021/10/15 01:33:42;;;;;;;6.57;2.75;;;9.40;86.10;;;;;;5054582;28;20024;-79
2021/10/15 01:36:08;;;;;;;6.82;2.47;;;9.40;88.30;;;;;;5056083;28;20025;-79
2021/10/15 01:38:34;;;;;;;4.70;2.72;;;9.30;88.60;;;;;;5054620;28;20025;-80
2021/10/15 01:41:00;;;;;;;3.90;2.63;;;9.30;88.30;;;;;;5053513;28;20117;-78
2021/10/15 01:43:28;;;;;;;3.78;2.80;;;9.30;89.70;;;;;;5035771;28;20050;-79
2021/10/15 01:45:55;;;;;;;6.57;2.83;;;9.20;87.80;;;;;;5053404;28;20024;-79
2021/10/15 01:48:21;;;;;;;4.47;3.05;;;9.30;89.00;;;;;;5035687;28;20028;-79
2021/10/15 01:50:47;;;;;;;7.32;2.80;;;9.30;87.30;;;;;;5036517;28;20021;-79
2021/10/15 01:53:13;;;;;;;6.72;3.05;;;9.40;86.50;;;;;;5057619;28;20395;-79
2021/10/15 01:55:39;;;;;;;4.40;3.03;;;9.40;87.00;;;;;;5053929;28;20100;-79
2021/10/15 01:58:07;;;;;;;4.75;2.60;;;9.50;87.30;;;;;;5053302;28;20136;-79
2021/10/15 02:00:33;;;;;;;5.40;3.10;;;9.50;87.20;;;;;;5035251;28;20044;-79
2021/10/15 02:02:59;;;;;;;5.55;2.83;;;9.50;88.20;;;;;;5035322;28;20039;-78
2021/10/15 02:05:26;;;;;;;5.78;2.95;;;9.50;87.40;;;;;;5053359;28;20029;-80
2021/10/15 02:07:52;;;;;;;5.50;2.70;;;9.50;87.70;;;;;;5058833;28;20021;-79
2021/10/15 02:10:18;;;;;;;4.53;3.20;;;9.50;87.40;;;;;;5059607;28;20021;-80
2021/10/15 02:12:44;;;;;;;6.57;3.00;;;9.50;88.10;;;;;;5041786;28;20032;-79
2021/10/15 02:15:11;;;;;;;7.80;3.42;;;9.40;87.40;;;;;;5038688;28;20078;-79
2021/10/15 02:17:38;;;;;;;5.35;3.10;;;9.40;87.20;;;;;;5056163;28;20036;-79
2021/10/15 02:20:11;;;;;;;4.60;3.30;;;9.50;87.70;;;;;;5039939;28;20471;-79
2021/10/15 02:22:47;;;;;;;;;;;9.50;87.80;;;;;;5058094;28;20537;-78
2021/10/15 02:25:16;;;;;;;3.80;2.63;;;9.50;88.00;;;;;;5057404;28;19909;-79
2021/10/15 02:27:42;;;;;;;4.13;3.10;;;9.40;88.90;;;;;;5036571;28;20065;-79
2021/10/15 02:30:10;;;;;;;10.50;3.33;;;9.30;88.60;;;;;;5035077;28;20018;-79
2021/10/15 02:32:37;;;;;;;4.82;2.80;;;9.30;89.60;;;;;;5053190;28;20029;-78
2021/10/15 02:35:04;;;;;;;5.65;2.53;;;9.30;89.30;;;;;;5053007;28;20032;-78
2021/10/15 02:37:30;;;;;;;4.25;2.55;;;9.30;89.60;;;;;;5052939;28;20029;-78
2021/10/15 02:39:56;;;;;;;4.18;2.97;;;9.30;88.90;;;;;;5052970;28;20036;-79
2021/10/15 02:42:21;;;;;;;4.35;2.97;;;9.40;88.10;;;;;;5051540;28;20422;-78
2021/10/15 02:44:47;;;;;;;4.28;2.70;;;9.40;88.70;;;;;;5052770;28;20061;-78
2021/10/15 02:47:13;;;;;;;5.07;2.70;;;9.50;89.10;;;;;;5052899;28;20017;-78
2021/10/15 02:49:39;;;;;;;7.35;3.05;;;9.50;88.90;;;;;;5034871;28;20029;-78
2021/10/15 02:52:05;;;;;;;7.07;3.05;;;9.50;87.90;;;;;;5052703;28;20440;-78
2021/10/15 02:54:31;;;;;;;4.57;3.00;;;9.50;88.50;;;;;;5052919;28;20052;-78
2021/10/15 02:56:57;;;;;;;4.82;2.97;;;9.50;88.20;;;;;;5035063;28;20116;-79
2021/10/15 02:59:22;;;;;;;5.75;2.90;;;9.40;90.00;;;;;;5052551;28;20041;-80
2021/10/15 03:01:48;;;;;;;4.07;2.70;;;9.40;88.30;;;;;;5052662;28;20040;-79
2021/10/15 03:04:14;;;;;;;4.95;3.00;;;9.50;88.70;;;;;;5034675;28;20021;-79
2021/10/15 03:06:40;;;;;;;5.20;3.30;;;9.50;88.70;;;;;;5052608;28;20025;-79
2021/10/15 03:09:06;;;;;;;6.07;3.28;;;9.50;89.20;;;;;;5052698;28;20166;-78
2021/10/15 03:11:32;;;;;;;4.55;2.88;;;9.40;87.90;;;;;;5052531;28;20025;-78
2021/10/15 03:13:58;;;;;;;3.78;2.85;;;9.50;89.30;;;;;;5034664;28;20040;-78
2021/10/15 03:16:24;;;;;;;4.75;3.13;;;9.50;88.90;;;;;;5052562;28;20029;-78
2021/10/15 03:18:49;;;;;;;6.18;3.13;;;9.60;87.40;;;;;;5052428;28;20370;-78
2021/10/15 03:21:15;;;;;;;6.70;3.10;;;9.60;88.10;;;;;;5052349;28;20040;-78
2021/10/15 03:23:41;;;;;;;5.45;3.13;;;9.60;87.80;;;;;;5034665;28;20025;-78
2021/10/15 03:26:07;;;;;;;5.07;3.20;;;9.60;88.30;;;;;;5034517;28;20025;-78
2021/10/15 03:28:32;;;;;;;6.93;3.30;;;9.50;89.00;;;;;;5052273;28;20471;-78
2021/10/15 03:30:58;;;;;;;5.40;3.30;;;9.50;88.90;;;;;;5052324;28;20387;-78
2021/10/15 03:33:24;;;;;;;4.05;3.20;;;9.40;88.60;;;;;;5056171;28;20044;-78
2021/10/15 03:35:49;;;;;;;7.05;3.35;;;9.40;88.60;;;;;;5056261;28;20071;-78
2021/10/15 03:38:15;;;;;;;7.35;3.10;;;9.40;88.60;;;;;;5055965;28;20024;-79
2021/10/15 03:40:41;;;;;;;6.28;3.60;;;9.40;89.10;;;;;;5055788;28;20033;-78
2021/10/15 03:43:06;;;;;;;6.13;3.47;;;9.40;89.40;;;;;;5055789;28;20083;-78
2021/10/15 03:45:32;;;;;;;8.07;3.83;;;9.30;89.90;;;;;;5055665;28;20032;-78
2021/10/15 03:47:58;;;;;;;4.38;3.00;;;9.30;90.60;;;;;;5055644;28;20067;-78
2021/10/15 03:50:24;;;;;;;5.85;3.30;;;9.20;90.40;;;;;;5055750;28;20029;-79
2021/10/15 03:52:49;;;;;;;3.88;2.90;;;9.00;91.30;;;;;;5055695;28;20017;-78
2021/10/15 03:55:15;;;;;;;11.23;3.53;;;9.00;91.40;;;;;;5055752;28;20037;-78
2021/10/15 03:57:41;;;;;;;5.45;3.45;;;8.90;92.10;;;;;;5055532;28;20021;-78
2021/10/15 04:00:10;;;;;;;3.78;3.20;;;8.90;91.70;;;;;;5055269;28;20503;-78
2021/10/15 04:02:44;;;;;;;6.38;3.50;;;8.90;91.70;;;;;;5055417;28;20036;-78
2021/10/15 04:05:11;;;;;;;7.88;2.85;;;8.90;91.80;;;;;;5055515;28;20025;-78
2021/10/15 04:07:37;;;;;;;5.93;3.10;;;8.80;91.90;;;;;;5055477;28;20029;-78
2021/10/15 04:10:04;;;;;;;6.15;3.20;;;8.80;92.00;;;;;;5055328;28;20394;-79
2021/10/15 04:12:30;;;;;;;5.03;3.35;;;8.80;92.00;;;;;;5055386;28;20021;-77
2021/10/15 04:14:56;;;;;;;8.70;3.30;;;8.80;91.60;;;;;;5055158;28;20513;-78
2021/10/15 04:17:21;;;;;;;4.90;3.58;;;8.80;91.60;;;;;;5055299;28;20025;-77
2021/10/15 04:19:47;;;;;;;9.32;4.40;;;8.80;91.50;;;;;;5055025;28;20441;-78
2021/10/15 04:22:13;;;;;;;14.23;4.50;;;8.90;91.50;;;;;;5055209;28;20057;-79
2021/10/15 04:24:39;;;;;;;10.35;3.97;;;8.90;91.70;;;;;;5054998;28;20033;-77
2021/10/15 04:27:06;;;;;;;11.32;4.25;;;9.00;92.70;;;;;;5054989;28;20025;-78
2021/10/15 04:29:31;;;;;;;7.55;3.53;;;8.90;92.60;;;;;;5054889;28;20078;-79
2021/10/15 04:31:57;;;;;;;7.55;3.70;;;8.90;91.80;;;;;;5055037;28;20418;-78
2021/10/15 04:34:23;;;;;;;6.55;3.47;;;8.90;91.40;;;;;;5054964;28;20032;-78
2021/10/15 04:36:49;;;;;;;4.80;3.22;;;9.00;91.60;;;;;;5054813;28;20502;-78
2021/10/15 04:39:15;;;;;;;7.00;3.80;;;9.10;91.70;;;;;;5054703;28;20025;-78
2021/10/15 04:41:41;;;;;;;8.43;3.47;;;9.10;91.40;;;;;;5054729;28;20033;-79
2021/10/15 04:44:07;;;;;;;8.27;3.50;;;9.10;91.70;;;;;;5053562;28;20017;-78
2021/10/15 04:46:33;;;;;;;4.47;3.35;;;9.10;91.20;;;;;;5054628;28;20025;-79
2021/10/15 04:48:58;;;;;;;5.45;3.60;;;9.10;91.50;;;;;;5054665;28;20019;-78
2021/10/15 04:51:24;;;;;;;7.90;3.60;;;9.10;91.30;;;;;;5054568;28;20104;-79
2021/10/15 04:53:50;;;;;;;6.28;3.30;;;9.10;91.20;;;;;;5054657;28;20079;-79
2021/10/15 04:56:16;;;;;;;7.20;3.88;;;9.10;91.20;;;;;;5054501;28;20032;-78
2021/10/15 04:58:41;;;;;;;5.18;2.92;;;9.30;90.80;;;;;;5054119;28;20057;-78
2021/10/15 05:01:07;;;;;;;6.85;3.55;;;9.30;90.30;;;;;;5036344;28;20072;-79
2021/10/15 05:03:33;;;;;;;6.05;3.20;;;9.40;90.20;;;;;;5036471;28;20029;-79
2021/10/15 05:05:58;;;;;;;4.85;3.35;;;9.40;90.40;;;;;;5054164;28;20091;-79
2021/10/15 05:08:30;;;;;;;7.32;3.33;;;9.30;90.50;;;;;;5054338;28;20029;-79
2021/10/15 05:10:56;;;;;;;6.30;3.53;;;9.30;90.80;;;;;;5053972;28;20032;-79
2021/10/15 05:13:22;;;;;;;8.48;3.97;;;9.20;90.40;;;;;;5053841;28;20021;-79
2021/10/15 05:15:48;;;;;;;4.97;3.63;;;9.30;90.60;;;;;;5053891;28;20036;-79
2021/10/15 05:18:15;;;;;;;9.73;3.53;;;9.30;90.30;;;;;;5036016;28;20475;-78
2021/10/15 05:20:42;;;;;;;5.47;3.85;;;9.30;90.10;;;;;;5035956;28;20033;-78
2021/10/15 05:23:09;;;;;;;3.95;3.50;;;9.30;90.20;;;;;;5053771;28;20490;-78
2021/10/15 05:25:35;;;;;;;5.13;3.10;;;9.40;90.00;;;;;;5035938;28;20029;-80
2021/10/15 05:28:02;;;;;;;5.05;3.35;;;9.50;90.40;;;;;;5053952;28;20043;-78
2021/10/15 05:30:28;;;;;;;7.65;3.65;;;9.50;90.20;;;;;;5035961;28;20025;-78
2021/10/15 05:32:54;;;;;;;5.07;3.63;;;9.60;89.70;;;;;;5053811;28;20021;-77
2021/10/15 05:35:20;;;;;;;5.10;3.28;;;9.60;89.30;;;;;;5053675;28;20031;-77
2021/10/15 05:37:46;;;;;;;4.45;2.90;;;9.60;90.10;;;;;;5053885;28;20087;-79
2021/10/15 05:40:13;;;;;;;3.97;3.13;;;9.70;88.80;;;;;;5053552;28;20041;-79
2021/10/15 05:42:46;;;;;;;5.30;3.60;;;9.70;89.30;;;;;;5035892;28;20071;-78
2021/10/15 05:45:13;;;;;;;6.50;3.05;;;9.80;88.90;;;;;;5053279;28;20041;-79
2021/10/15 05:47:38;;;;;;;6.50;3.47;;;9.80;89.80;;;;;;5052952;28;20065;-79
2021/10/15 05:50:05;;;;;;;5.22;3.70;;;9.80;89.30;;;;;;5053299;28;20061;-79
2021/10/15 05:52:36;;;;;;;7.70;3.38;;;9.90;88.30;;;;;;5051850;28;20082;-78
2021/10/15 06:00:29;;;;;;;4.40;3.28;;;10.00;88.20;;;;;;5013326;28;20045;-78
2021/10/15 06:02:55;;;;;;;5.45;3.63;;;10.10;86.70;;;;;;5012226;28;20025;-78
2021/10/15 06:16:27;;;;;;;4.45;3.13;;;10.50;85.80;;;;;;5014205;28;20020;-79
2021/10/15 06:18:57;;;;;;;3.22;2.83;;;10.60;84.80;;;;;;5018631;28;20033;-79
2021/10/15 06:21:23;;;;;;;4.72;3.08;;;10.60;84.80;;;;;;5013193;28;20153;-80
2021/10/15 06:23:49;;;;;;;4.30;3.30;;;10.60;85.20;;;;;;5013263;28;20523;-79
2021/10/15 06:26:15;;;;;;;6.13;3.17;;;10.70;85.30;;;;;;5013672;28;20510;-79
2021/10/15 06:28:40;;;;;;;11.95;3.40;;;10.80;84.50;;;;;;5013287;28;20082;-78
2021/10/15 06:31:06;;;;;;;4.93;3.25;;;10.80;84.30;;;;;;5013199;28;20073;-79
2021/10/15 06:33:32;;;;;;;5.43;3.30;;;10.90;83.40;;;;;;5013193;28;20048;-79
2021/10/15 06:35:57;;;;;;;4.07;3.10;;;11.00;83.30;;;;;;5028323;28;20022;-81
2021/10/15 06:38:23;;;;;;;5.30;2.92;;;11.00;84.70;;;;;;5028281;28;20026;-84
2021/10/15 06:40:49;;;;;;;3.92;2.92;;;11.00;84.20;;;;;;5011674;28;20612;-80
2021/10/15 06:43:14;;;;;;;3.00;2.60;;;11.00;83.80;;;;;;5013042;28;20533;-79
2021/10/15 06:45:40;;;;;;;2.78;2.45;;;11.10;83.70;;;;;;5013088;28;20376;-79
2021/10/15 06:48:06;;;;;;;4.45;2.38;;;11.20;84.30;;;;;;5013004;28;20232;-78
2021/10/15 06:50:32;;;;;;;6.93;3.30;;;11.20;84.30;;;;;;5013083;28;20105;-77
2021/10/15 06:52:57;;;;;;;4.45;2.90;;;11.40;85.50;;;;;;5012878;28;20437;-78
2021/10/15 06:55:24;;;;;;;4.38;2.85;;;11.40;83.10;;;;;;5013001;28;20022;-77
2021/10/15 06:57:51;;;;;;;4.20;2.97;;;11.50;82.90;;;;;;5015718;28;20026;-78
2021/10/15 07:00:18;;;;;;;5.38;2.90;;;11.60;80.70;;;;;;5052457;28;20075;-76
2021/10/15 07:02:44;;;;;;;4.93;2.38;;;11.50;81.10;;;;;;5052794;28;20028;-76
2021/10/15 07:05:11;;;;;;;4.25;2.20;;;11.50;80.80;;;;;;5052460;28;20021;-77
2021/10/15 07:07:37;;;;;;;6.38;2.60;;;11.50;81.50;;;;;;5055209;28;20497;-76
2021/10/15 07:10:05;;;;;;;3.28;2.15;;;11.50;83.40;;;;;;5056352;28;20025;-78
2021/10/15 07:12:41;;;;;;;4.10;2.45;;;11.50;82.10;;;;;;5056480;28;20048;-77
2021/10/15 07:15:09;;;;;;;4.70;2.60;;;11.50;81.20;;;;;;5056171;28;20032;-78
2021/10/15 07:17:34;;;;;;;2.30;1.90;;;11.60;80.90;;;;;;5056237;28;20109;-76
2021/10/15 07:20:00;;;;;;;4.70;2.80;;;11.60;80.60;;;;;;5038132;28;20119;-78
2021/10/15 07:22:26;;;;;;;4.72;2.63;;;11.60;81.90;;;;;;5056235;28;20021;-77
2021/10/15 07:24:52;;;;;;;4.22;2.30;;;11.70;82.30;;;;;;5056071;28;20025;-78
2021/10/15 07:27:19;;;;;;;2.85;2.28;;;11.70;81.00;;;;;;5038193;28;20455;-78
2021/10/15 07:29:44;;;;;;;2.90;2.28;;;11.70;80.40;;;;;;5056085;28;20075;-80
2021/10/15 07:32:10;;;;;;;4.25;2.55;;;11.70;80.90;;;;;;5038020;28;20395;-78
2021/10/15 07:34:36;;;;;;;3.78;2.25;;;11.80;81.80;;;;;;5055922;28;20546;-78
2021/10/15 07:37:02;;;;;;;3.97;2.35;;;11.80;82.60;;;;;;5055827;28;20467;-77
2021/10/15 07:39:27;;;;;;;3.17;2.45;;;11.70;82.20;;;;;;5038024;28;20024;-77
2021/10/15 07:41:53;;;;;;;3.25;2.50;;;11.70;82.80;;;;;;5055918;28;20040;-77
2021/10/15 07:44:19;;;;;;;2.70;2.33;;;11.80;82.30;;;;;;5037815;28;20075;-78
2021/10/15 07:46:44;;;;;;;2.95;2.10;;;11.80;83.00;;;;;;5055755;28;20017;-77
2021/10/15 07:49:10;;;;;;;3.63;2.40;;;11.80;82.80;;;;;;5055513;28;20020;-77
2021/10/15 07:51:37;;;;;;;4.72;2.10;;;11.80;81.70;;;;;;5055584;28;20485;-77
2021/10/15 07:54:04;;;;;;;5.32;2.80;;;11.80;82.70;;;;;;5055524;28;20048;-77
2021/10/15 07:56:32;;;;;;;4.30;2.50;;;11.90;81.60;;;;;;5055635;28;20104;-78
2021/10/15 07:58:58;;;;;;;3.10;2.40;;;11.90;80.60;;;;;;5037403;28;20495;-77
2021/10/15 08:01:24;;;;;;;3.83;2.40;;;12.10;82.10;;;;;;5037470;28;20033;-78
2021/10/15 08:03:51;;;;;;;6.47;2.47;;;12.10;82.50;;;;;;5055261;28;20021;-77
2021/10/15 08:06:17;;;;;;;4.22;2.85;;;12.30;83.40;;;;;;5055314;28;20028;-78
2021/10/15 08:08:43;;;;;;;3.35;2.45;;;12.50;81.80;;;;;;5055253;28;20028;-78
2021/10/15 08:11:10;;;;;;;3.15;2.50;;;12.60;81.10;;;;;;5055255;28;20399;-78
2021/10/15 08:13:36;;;;;;;5.25;2.13;;;12.90;78.70;;;;;;5055159;28;20017;-78
2021/10/15 08:16:02;;;;;;;2.80;2.25;;;13.10;77.80;;;;;;5055051;28;20441;-77
2021/10/15 08:18:28;;;;;;;4.03;2.47;;;13.20;78.40;;;;;;5053686;28;20356;-77
2021/10/15 08:20:57;;;;;;;3.33;2.38;;;13.30;78.20;;;;;;5037181;28;20033;-77
2021/10/15 08:23:28;;;;;;;6.68;2.30;;;13.40;77.10;;;;;;5055054;28;20025;-77
2021/10/15 08:25:57;;;;;;;2.45;2.25;;;13.50;77.40;;;;;;5037059;28;20550;-77
2021/10/15 08:28:23;;;;;;;2.78;2.30;;;13.60;77.00;;;;;;5054892;28;20027;-78
2021/10/15 08:30:49;;;;;;;3.45;2.60;;;13.60;76.60;;;;;;5054751;28;20025;-77
2021/10/15 08:33:15;;;;;;;3.85;2.10;;;13.70;76.30;;;;;;5054997;28;20098;-77
2021/10/15 08:35:41;;;;;;;3.28;2.22;;;13.70;77.10;;;;;;5054844;28;20017;-76
2021/10/15 08:38:07;;;;;;;3.72;2.53;;;13.80;77.10;;;;;;5054721;28;20036;-77
2021/10/15 08:40:33;;;;;;;3.08;1.98;;;13.90;75.00;;;;;;5036745;28;20068;-77
2021/10/15 08:42:58;;;;;;;6.30;2.38;;;13.90;74.60;;;;;;5054643;28;20104;-77
2021/10/15 08:45:32;;;;;;;3.53;2.20;;;13.90;74.70;;;;;;5036406;28;20057;-77
2021/10/15 08:47:58;;;;;;;2.90;2.50;;;13.90;75.50;;;;;;5036643;28;20056;-78
2021/10/15 08:50:25;;;;;;;2.83;1.85;;;14.00;75.70;;;;;;5054572;28;20442;-78
2021/10/15 08:52:51;;;;;;;2.90;1.98;;;14.10;76.90;;;;;;5054468;28;20040;-77
2021/10/15 08:55:19;;;;;;;2.90;1.80;;;14.20;77.30;;;;;;5036607;28;20104;-77
2021/10/15 08:57:54;;;;;;;2.13;1.65;;;14.30;73.10;;;;;;5054102;28;20036;-77
2021/10/15 09:00:28;;;;;;;2.85;1.80;;;14.40;74.10;;;;;;5054182;28;20116;-80
2021/10/15 09:03:12;;;;;;;2.22;1.77;;;14.40;73.00;;;;;;5036315;28;20025;-79
2021/10/15 09:05:40;;;;;;;1.85;1.35;;;14.50;72.70;;;;;;5060474;28;20104;-78
2021/10/15 09:08:06;;;;;;;2.05;1.45;;;14.40;72.60;;;;;;5055051;28;20098;-80
2021/10/15 09:10:33;;;;;;;3.08;1.55;;;14.50;72.60;;;;;;5054099;28;20463;-80
2021/10/15 09:13:09;;;;;;;11.95;2.00;;;14.60;73.00;;;;;;5036219;28;20498;-78
2021/10/15 09:15:36;;;;;;;1.73;1.60;;;14.60;72.20;;;;;;5052666;28;20118;-76
2021/10/15 09:18:20;;;;;;;2.58;1.70;;;14.70;73.30;;;;;;5054098;28;20025;-76
2021/10/15 09:20:48;;;;;;;2.10;1.50;;;14.90;72.00;;;;;;5053751;28;20491;-75
2021/10/15 09:23:14;;;;;;;2.13;1.52;;;14.90;71.60;;;;;;5035764;28;20036;-78
2021/10/15 09:25:44;;;;;;;3.47;1.77;;;14.80;70.10;;;;;;5053410;28;20056;-78
2021/10/15 09:28:15;;;;;;;3.05;2.10;;;14.80;70.60;;;;;;5053838;28;20048;-76
2021/10/15 09:30:44;;;;;;;9.77;3.60;;;14.80;70.70;;;;;;5053081;28;20036;-76
2021/10/15 09:33:10;;;;;;;9.50;3.50;;;14.80;70.00;;;;;;5035656;28;20025;-77
2021/10/15 09:35:36;;;;;;;3.75;2.08;;;14.90;70.90;;;;;;5053531;28;20029;-76
2021/10/15 09:38:05;;;;;;;4.10;2.50;;;15.00;70.10;;;;;;5053553;28;20025;-76
2021/10/15 09:40:40;;;;;;;4.10;2.60;;;15.10;70.10;;;;;;5035263;28;20115;-76
2021/10/15 09:43:09;;;;;;;4.40;2.22;;;15.10;70.10;;;;;;5035419;28;20363;-76
2021/10/15 09:45:40;;;;;;;4.95;3.10;;;15.20;71.30;;;;;;5052613;28;20067;-77
2021/10/15 09:48:32;;;;;;;5.50;2.15;;;15.30;70.70;;;;;;5053502;28;20032;-77
2021/10/15 09:51:19;;;;;;;4.93;2.55;;;15.40;69.70;;;;;;5035563;28;20501;-77
2021/10/15 09:54:07;;;;;;;3.08;1.70;;;15.50;69.20;;;;;;5053363;28;20482;-78
2021/10/15 09:56:44;;;;;;;1.67;1.40;;;15.50;69.40;;;;;;5053224;28;20084;-76
2021/10/15 09:59:11;;;;;;;1.98;1.83;;;15.50;68.00;;;;;;5053101;28;20048;-77
2021/10/15 10:01:38;;;;;;;4.47;2.10;;;15.50;69.10;;;;;;5053199;28;20040;-77
2021/10/15 10:04:08;;;;;;;2.75;1.70;;;15.50;70.50;;;;;;5035526;28;20024;-77
2021/10/15 10:06:34;;;;;;;2.78;1.48;;;15.60;68.30;;;;;;5035328;28;20027;-76
2021/10/15 10:09:01;;;;;;;1.88;1.50;;;15.60;69.40;;;;;;5035253;28;20103;-77
2021/10/15 10:11:30;;;;;;;1.73;1.52;;;15.70;68.60;;;;;;5035034;28;20047;-77
2021/10/15 10:13:56;;;;;;;4.20;1.73;;;15.70;69.40;;;;;;5053172;28;20028;-78
2021/10/15 10:16:44;;;;;;;2.75;1.80;;;15.70;68.20;;;;;;5052952;28;20109;-77
2021/10/15 10:19:10;;;;;;;2.05;1.50;;;15.80;69.40;;;;;;5052761;28;20021;-78
2021/10/15 10:21:36;;;;;;;1.33;1.23;;;15.90;68.00;;;;;;5051507;28;20395;-78
2021/10/15 10:24:08;;;;;;;2.50;1.38;;;16.10;67.20;;;;;;5052879;28;20075;-78
2021/10/15 10:26:55;;;;;;;3.42;1.70;;;16.20;65.60;;;;;;5052868;28;20082;-77
2021/10/15 10:29:21;;;;;;;4.35;1.90;;;16.20;64.00;;;;;;5034999;28;20029;-78
2021/10/15 10:31:48;;;;;;;2.28;1.45;;;16.30;62.20;;;;;;5052828;28;20025;-76
2021/10/15 10:34:30;;;;;;;1.73;1.33;;;16.20;61.30;;;;;;5052759;28;20025;-77
2021/10/15 10:37:02;;;;;;;;;;;16.20;61.20;;;;;;5035418;28;20047;-77
2021/10/15 10:39:28;;;;;;;1.45;1.20;;;16.20;62.80;;;;;;5052829;28;19959;-78
2021/10/15 10:42:15;;;;;;;1.58;1.27;;;16.20;62.10;;;;;;5054713;28;20056;-77
2021/10/15 10:45:00;;;;;;;4.47;1.60;;;16.30;61.10;;;;;;5056982;28;20021;-77
2021/10/15 10:47:28;;;;;;;1.60;1.45;;;16.30;63.80;;;;;;5028735;28;20099;-78
2021/10/15 10:50:06;;;;;;;2.28;1.40;;;16.40;63.50;;;;;;5038928;28;20465;-78
2021/10/15 10:52:35;;;;;;;1.63;1.23;;;16.50;64.80;;;;;;5038951;28;20453;-78
2021/10/15 10:55:02;;;;;;;2.47;1.40;;;16.60;63.10;;;;;;5056693;28;20071;-77
2021/10/15 10:57:31;;;;;;;3.75;1.40;;;16.70;60.60;;;;;;5056683;28;20075;-80
2021/10/15 11:00:18;;;;;;;1.40;1.10;;;16.80;61.60;;;;;;5038728;28;20418;-77
2021/10/15 11:02:58;;;;;;;3.13;1.30;;;16.90;59.70;;;;;;5056492;28;20552;-78
2021/10/15 11:05:34;;;;;;;2.10;1.50;;;16.80;59.70;;;;;;5038444;28;20068;-77
2021/10/15 11:08:23;;;;;;;1.40;1.30;;;16.80;61.70;;;;;;5056379;28;20441;-78
2021/10/15 11:10:50;;;;;;;1.73;1.50;;;17.00;60.40;;;;;;5030466;28;20032;-78
2021/10/15 11:13:32;;;;;;;1.85;1.27;;;17.00;60.20;;;;;;5057104;28;20025;-76
2021/10/15 11:15:58;;;;;;;2.72;1.60;;;17.00;60.50;;;;;;5060357;28;20146;-79
2021/10/15 11:18:25;;;;;;;2.60;1.52;;;17.00;59.80;;;;;;5042504;28;20028;-86
2021/10/15 11:20:50;;;;;;;2.25;1.58;;;17.00;60.70;;;;;;5054890;28;20127;-81
2021/10/15 11:23:17;;;;;;;1.30;1.25;;;17.20;63.70;;;;;;5056327;28;20064;-82
2021/10/15 11:25:47;;;;;;;7.22;1.45;;;17.50;58.60;;;;;;5039197;28;20120;-82
2021/10/15 11:28:19;;;;;;;1.40;1.05;;;17.50;56.60;;;;;;5039270;28;20056;-83
2021/10/15 11:30:47;;;;;;;6.07;2.60;;;17.50;60.70;;;;;;5063130;28;20040;-83
2021/10/15 11:33:17;;;;;;;3.03;1.38;;;17.80;58.70;;;;;;5045037;28;20067;-81
2021/10/15 11:35:45;;;;;;;2.53;1.63;;;17.90;55.50;;;;;;5044919;28;20385;-81
2021/10/15 11:38:19;;;;;;;5.28;2.60;;;18.00;53.10;;;;;;5043369;28;20390;-81
2021/10/15 11:40:50;;;;;;;5.22;2.20;;;18.10;54.00;;;;;;5056493;28;20044;-79
2021/10/15 11:43:29;;;;;;;3.75;1.55;;;18.30;54.90;;;;;;5037950;28;20052;-78
2021/10/15 11:45:59;;;;;;;2.47;1.25;;;18.40;52.70;;;;;;5055826;28;20483;-79
2021/10/15 11:48:42;;;;;;;1.65;1.20;;;18.50;51.30;;;;;;5055804;28;20017;-79
2021/10/15 11:51:25;;;;;;;1.52;1.10;;;18.30;52.10;;;;;;5055731;28;20021;-79
2021/10/15 11:53:53;;;;;;;2.65;1.55;;;18.30;52.20;;;;;;5054005;28;20025;-89
2021/10/15 11:56:28;;;;;;;22.17;6.88;;;18.40;52.90;;;;;;5055808;28;20025;-80
2021/10/15 11:58:55;;;;;;;2.10;1.20;;;18.50;60.60;;;;;;5054153;28;20047;-79
2021/10/15 12:01:22;;;;;;;1.50;1.20;;;18.90;52.20;;;;;;5055366;28;20040;-80
2021/10/15 12:03:55;;;;;;;1.08;0.93;;;20.40;49.40;;;;;;5037509;28;20364;-78
2021/10/15 12:06:34;;;;;;;1.73;1.02;;;23.90;44.80;;;;;;5055489;28;20455;-78
2021/10/15 12:09:01;;;;;;;1.35;1.10;;;26.50;40.10;;;;;;5055118;28;20040;-78
2021/10/15 12:11:29;;;;;;;2.08;1.40;;;27.60;39.30;;;;;;5037289;28;20036;-79
2021/10/15 12:13:55;;;;;;;1.50;1.35;;;27.90;38.30;;;;;;5055150;28;20061;-79
2021/10/15 12:16:23;;;;;;;1.33;1.10;;;28.60;36.90;;;;;;5055131;28;20025;-78
2021/10/15 12:19:04;;;;;;;3.00;1.50;;;29.50;35.90;;;;;;5055079;28;20083;-79
2021/10/15 12:21:41;;;;;;;2.00;1.58;;;30.50;35.70;;;;;;5054897;28;20404;-78
2021/10/15 12:24:28;;;;;;;3.55;1.27;;;31.10;35.10;;;;;;5055181;28;20032;-79
2021/10/15 12:27:09;;;;;;;2.47;1.25;;;31.40;35.60;;;;;;5055066;28;20482;-78
2021/10/15 12:29:44;;;;;;;0.95;0.95;;;31.90;33.50;;;;;;5036926;28;20060;-79
2021/10/15 12:32:28;;;;;;;4.00;1.30;;;31.00;34.70;;;;;;5053689;28;20024;-78
2021/10/15 12:35:15;;;;;;;8.63;1.42;;;30.10;34.80;;;;;;5054746;28;20104;-77
2021/10/15 12:37:50;;;;;;;2.45;1.10;;;29.40;35.50;;;;;;5054780;28;20044;-78
2021/10/15 12:40:38;;;;;;;1.33;1.20;;;29.50;35.50;;;;;;5054552;28;20029;-78
2021/10/15 12:43:16;;;;;;;2.28;1.30;;;29.50;35.00;;;;;;5054475;28;20017;-78
2021/10/15 12:45:45;;;;;;;1.00;0.98;;;28.60;36.30;;;;;;5054501;28;20530;-78
2021/10/15 12:48:21;;;;;;;2.20;1.40;;;28.00;36.20;;;;;;5054572;28;20053;-79
2021/10/15 12:50:57;;;;;;;3.47;1.58;;;27.50;37.00;;;;;;5036514;28;20056;-78
2021/10/15 12:53:23;;;;;;;1.55;1.27;;;27.80;37.60;;;;;;5036069;28;20029;-78
2021/10/15 12:55:51;;;;;;;3.03;1.42;;;29.10;36.20;;;;;;5054244;28;20031;-79
2021/10/15 12:58:18;;;;;;;2.03;1.45;;;30.30;34.90;;;;;;5054411;28;20045;-79
2021/10/15 13:00:52;;;;;;;1.40;1.30;;;31.80;34.10;;;;;;5054087;28;20099;-78
2021/10/15 13:03:19;;;;;;;2.30;1.42;;;30.90;33.90;;;;;;5053920;28;20024;-79
2021/10/15 13:05:45;;;;;;;4.13;1.50;;;30.90;34.40;;;;;;5053475;28;20109;-79
2021/10/15 13:08:14;;;;;;;1.85;1.17;;;31.70;34.40;;;;;;5053877;28;20029;-80
2021/10/15 13:10:40;;;;;;;3.40;1.40;;;31.70;33.30;;;;;;5053876;28;20494;-79
2021/10/15 13:13:05;;;;;;;1.60;1.38;;;31.70;33.30;;;;;;5053851;28;20033;-80